sensor_id;sensor_type;location;lat;lon;timestamp;pressure;altitude;pressure_sealevel;temperature;humidity
65054;BME280;51639;47.828;35.038;2023-02-15T00:01:50;100349.97;;;2.73;100.00
65054;BME280;51639;47.828;35.038;2023-02-15T00:16:52;100370.00;;;2.79;100.00
65054;BME280;51639;47.828;35.038;2023-02-15T00:31:56;100393.03;;;2.61;100.00
65054;BME280;51639;47.828;35.038;2023-02-15T00:46:57;100384.59;;;2.59;100.00
65054;BME280;51639;47.828;35.038;2023-02-15T01:01:59;100387.09;;;2.71;100.00
65054;BME280;51639;47.828;35.038;2023-02-15T01:17:01;100381.59;;;2.64;100.00
65054;BME280;51639;47.828;35.038;2023-02-15T01:32:03;100395.56;;;2.73;100.00
65054;BME280;51639;47.828;35.038;2023-02-15T01:47:09;100391.91;;;2.85;100.00
65054;BME280;51639;47.828;35.038;2023-02-15T02:02:13;100395.69;;;2.80;100.00
65054;BME280;51639;47.828;35.038;2023-02-15T02:48:19;100409.06;;;2.57;100.00
65054;BME280;51639;47.828;35.038;2023-02-15T03:03:46;100412.56;;;2.61;100.00
65054;BME280;51639;47.828;35.038;2023-02-15T03:18:57;100422.13;;;2.59;100.00
65054;BME280;51639;47.828;35.038;2023-02-15T03:34:07;100424.53;;;2.45;100.00
65054;BME280;51639;47.828;35.038;2023-02-15T03:49:17;100445.97;;;2.45;100.00
65054;BME280;51639;47.828;35.038;2023-02-15T04:04:27;100448.09;;;2.55;100.00
65054;BME280;51639;47.828;35.038;2023-02-15T04:19:29;100461.75;;;2.50;100.00
65054;BME280;51639;47.828;35.038;2023-02-15T04:34:50;100477.13;;;2.53;100.00
65054;BME280;51639;47.828;35.038;2023-02-15T04:49:52;100497.72;;;2.49;100.00
65054;BME280;51639;47.828;35.038;2023-02-15T05:04:54;100522.97;;;2.48;100.00
65054;BME280;51639;47.828;35.038;2023-02-15T05:19:56;100530.59;;;2.46;100.00
65054;BME280;51639;47.828;35.038;2023-02-15T05:34:58;100545.53;;;2.47;100.00
65054;BME280;51639;47.828;35.038;2023-02-15T05:49:59;100564.84;;;2.36;100.00
65054;BME280;51639;47.828;35.038;2023-02-15T06:05:02;100557.47;;;2.49;100.00
65054;BME280;51639;47.828;35.038;2023-02-15T06:20:05;100569.81;;;2.73;100.00
65054;BME280;51639;47.828;35.038;2023-02-15T06:35:07;100574.72;;;2.90;100.00
65054;BME280;51639;47.828;35.038;2023-02-15T06:50:10;100586.88;;;3.03;100.00
65054;BME280;51639;47.828;35.038;2023-02-15T07:05:12;100586.78;;;3.00;100.00
65054;BME280;51639;47.828;35.038;2023-02-15T07:20:19;100592.38;;;3.56;100.00
65054;BME280;51639;47.828;35.038;2023-02-15T07:35:22;100594.25;;;3.78;100.00
65054;BME280;51639;47.828;35.038;2023-02-15T07:50:24;100616.59;;;4.09;100.00
65054;BME280;51639;47.828;35.038;2023-02-15T08:05:28;100626.88;;;4.03;100.00
65054;BME280;51639;47.828;35.038;2023-02-15T08:20:31;100647.00;;;4.13;100.00
65054;BME280;51639;47.828;35.038;2023-02-15T08:35:33;100651.53;;;4.09;100.00
65054;BME280;51639;47.828;35.038;2023-02-15T08:50:35;100648.34;;;4.00;100.00
65054;BME280;51639;47.828;35.038;2023-02-15T09:05:37;100662.13;;;3.98;100.00
65054;BME280;51639;47.828;35.038;2023-02-15T09:20:39;100661.03;;;4.03;100.00
65054;BME280;51639;47.828;35.038;2023-02-15T09:35:41;100645.69;;;4.03;100.00
65054;BME280;51639;47.828;35.038;2023-02-15T10:52:25;100666.63;;;4.43;100.00
65054;BME280;51639;47.828;35.038;2023-02-15T11:07:36;100673.91;;;5.33;100.00
65054;BME280;51639;47.828;35.038;2023-02-15T11:22:39;100679.00;;;4.78;100.00
65054;BME280;51639;47.828;35.038;2023-02-15T11:37:53;100675.47;;;4.74;100.00
65054;BME280;51639;47.828;35.038;2023-02-15T11:53:02;100689.59;;;4.37;100.00
65054;BME280;51639;47.828;35.038;2023-02-15T12:08:20;100705.25;;;4.09;100.00
65054;BME280;51639;47.828;35.038;2023-02-15T12:23:28;100713.97;;;4.25;100.00
65054;BME280;51639;47.828;35.038;2023-02-15T12:38:32;100738.03;;;4.94;100.00
65054;BME280;51639;47.828;35.038;2023-02-15T12:53:35;100738.81;;;4.94;100.00
65054;BME280;51639;47.828;35.038;2023-02-15T13:08:46;100747.50;;;4.84;100.00
65054;BME280;51639;47.828;35.038;2023-02-15T13:23:53;100755.94;;;4.83;100.00
65054;BME280;51639;47.828;35.038;2023-02-15T13:39:25;100774.66;;;3.42;100.00
65054;BME280;51639;47.828;35.038;2023-02-15T15:11:43;100840.94;;;1.96;100.00
65054;BME280;51639;47.828;35.038;2023-02-15T15:26:45;100847.63;;;2.18;100.00
65054;BME280;51639;47.828;35.038;2023-02-15T15:42:01;100866.53;;;2.53;100.00
65054;BME280;51639;47.828;35.038;2023-02-15T15:57:04;100893.31;;;2.37;100.00
65054;BME280;51639;47.828;35.038;2023-02-15T16:12:15;100893.38;;;2.25;100.00
65054;BME280;51639;47.828;35.038;2023-02-15T16:42:34;100917.47;;;1.97;100.00
65054;BME280;51639;47.828;35.038;2023-02-15T16:57:37;100934.56;;;1.93;100.00
65054;BME280;51639;47.828;35.038;2023-02-15T17:12:53;100940.13;;;2.00;100.00
65054;BME280;51639;47.828;35.038;2023-02-15T17:27:56;100959.38;;;2.46;100.00
65054;BME280;51639;47.828;35.038;2023-02-15T17:43:00;100953.72;;;2.07;100.00
65054;BME280;51639;47.828;35.038;2023-02-15T17:58:05;100964.88;;;2.09;100.00
65054;BME280;51639;47.828;35.038;2023-02-15T18:13:07;100958.94;;;2.44;100.00
65054;BME280;51639;47.828;35.038;2023-02-15T18:28:09;100962.34;;;2.28;100.00
65054;BME280;51639;47.828;35.038;2023-02-15T18:43:12;100954.91;;;1.69;100.00
65054;BME280;51639;47.828;35.038;2023-02-15T18:58:19;100950.72;;;1.56;100.00
65054;BME280;51639;47.828;35.038;2023-02-15T19:13:22;100959.63;;;1.48;100.00
65054;BME280;51639;47.828;35.038;2023-02-15T19:28:29;100952.72;;;1.47;100.00
65054;BME280;51639;47.828;35.038;2023-02-15T19:43:34;100950.50;;;1.49;100.00
65054;BME280;51639;47.828;35.038;2023-02-15T19:58:36;100953.38;;;1.44;100.00
65054;BME280;51639;47.828;35.038;2023-02-15T20:13:38;100955.63;;;1.06;100.00
65054;BME280;51639;47.828;35.038;2023-02-15T20:28:40;100951.59;;;0.87;100.00
65054;BME280;51639;47.828;35.038;2023-02-15T20:43:43;100950.63;;;0.59;100.00
65054;BME280;51639;47.828;35.038;2023-02-15T20:58:45;100947.25;;;0.50;100.00
65054;BME280;51639;47.828;35.038;2023-02-15T21:13:49;100949.41;;;0.23;100.00
65054;BME280;51639;47.828;35.038;2023-02-15T21:28:52;100959.63;;;0.00;100.00
65054;BME280;51639;47.828;35.038;2023-02-15T21:43:56;100948.91;;;0.09;100.00
65054;BME280;51639;47.828;35.038;2023-02-15T21:59:17;100966.75;;;0.17;100.00
65054;BME280;51639;47.828;35.038;2023-02-15T22:14:39;100968.03;;;0.11;100.00
65054;BME280;51639;47.828;35.038;2023-02-15T22:29:41;100982.75;;;-0.04;100.00
65054;BME280;51639;47.828;35.038;2023-02-15T22:44:44;100983.75;;;-0.08;100.00
65054;BME280;51639;47.828;35.038;2023-02-15T22:59:46;100984.28;;;-0.23;100.00
65054;BME280;51639;47.828;35.038;2023-02-15T23:14:48;100994.97;;;-0.23;100.00
65054;BME280;51639;47.828;35.038;2023-02-15T23:29:52;101005.09;;;-0.38;100.00
65054;BME280;51639;47.828;35.038;2023-02-15T23:44:55;101024.28;;;-0.15;100.00
65054;BME280;51639;47.828;35.038;2023-02-15T23:59:57;101030.03;;;-0.04;100.00
